createdAt,value
2019-02-28T00:01:47.984Z,13.93
2019-02-28T00:04:17.610Z,13.80
2019-02-28T00:06:47.218Z,14.20
2019-02-28T00:09:16.848Z,14.87
2019-02-28T00:11:46.052Z,15.43
2019-02-28T00:14:15.936Z,15.20
2019-02-28T00:16:45.139Z,15.17
2019-02-28T00:19:14.379Z,14.27
2019-02-28T00:21:43.505Z,14.90
2019-02-28T00:24:13.058Z,14.60
2019-02-28T00:26:46.226Z,15.53
2019-02-28T00:29:14.629Z,15.97
2019-02-28T00:31:49.502Z,16.27
2019-02-28T00:34:15.020Z,14.90
2019-02-28T00:36:44.246Z,14.27
2019-02-28T00:39:13.861Z,15.90
2019-02-28T00:41:44.472Z,15.73
2019-02-28T00:44:13.838Z,15.57
2019-02-28T00:46:45.003Z,14.97
2019-02-28T00:49:14.758Z,15.63
2019-02-28T00:51:44.374Z,15.43
2019-02-28T00:54:13.649Z,15.83
2019-02-28T00:56:42.781Z,15.60
2019-02-28T00:59:11.909Z,15.40
2019-02-28T01:01:43.035Z,15.77
2019-02-28T01:04:12.451Z,16.13
2019-02-28T01:06:41.888Z,16.53
2019-02-28T01:09:12.217Z,16.57
2019-02-28T01:11:44.951Z,16.37
2019-02-28T01:14:13.329Z,17.23
2019-02-28T01:16:43.102Z,16.87
2019-02-28T01:19:12.798Z,16.63
2019-02-28T01:21:42.026Z,17.30
2019-02-28T01:24:11.564Z,16.77
2019-02-28T01:26:43.334Z,17.47
2019-02-28T01:29:12.057Z,18.00
2019-02-28T01:31:42.585Z,17.57
2019-02-28T01:34:12.489Z,17.67
2019-02-28T01:36:42.009Z,17.70
2019-02-28T01:39:12.781Z,18.63
2019-02-28T01:41:45.283Z,19.37
2019-02-28T01:44:13.845Z,19.03
2019-02-28T01:46:43.469Z,19.27
2019-02-28T01:49:13.170Z,19.57
2019-02-28T01:51:42.799Z,19.50
2019-02-28T01:54:11.994Z,20.10
2019-02-28T01:56:41.093Z,20.83
2019-02-28T01:59:10.186Z,21.40
2019-02-28T02:01:39.758Z,21.43
2019-02-28T02:04:12.486Z,20.20
2019-02-28T02:06:40.336Z,20.90
2019-02-28T02:09:11.054Z,20.40
2019-02-28T02:11:41.518Z,21.00
2019-02-28T02:14:11.859Z,21.67
2019-02-28T02:16:41.688Z,21.13
2019-02-28T02:19:10.873Z,21.90
2019-02-28T02:21:40.396Z,23.40
2019-02-28T02:24:09.650Z,22.90
2019-02-28T02:26:42.340Z,24.07
2019-02-28T02:29:10.249Z,24.10
2019-02-28T02:31:39.882Z,24.13
2019-02-28T02:34:09.488Z,24.50
2019-02-28T02:36:38.671Z,26.47
2019-02-28T02:39:08.268Z,25.53
2019-02-28T02:41:37.871Z,25.00
2019-02-28T02:44:07.055Z,26.23
2019-02-28T02:46:36.595Z,27.23
2019-02-28T02:49:06.189Z,27.57
2019-02-28T02:51:35.405Z,27.80
2019-02-28T02:54:05.506Z,28.47
2019-02-28T02:56:40.715Z,28.17
2019-02-28T02:59:05.997Z,29.03
2019-02-28T03:01:35.554Z,28.23
2019-02-28T03:04:04.754Z,28.93
2019-02-28T03:06:34.275Z,30.27
2019-02-28T03:09:09.020Z,30.43
2019-02-28T03:11:36.130Z,31.27
2019-02-28T03:14:05.694Z,32.30
2019-02-28T03:16:34.916Z,31.43
2019-02-28T03:19:04.682Z,32.93
2019-02-28T03:21:33.870Z,33.43
2019-02-28T03:24:03.466Z,32.63
2019-02-28T03:26:32.728Z,35.50
2019-02-28T03:29:07.555Z,34.97
2019-02-28T03:31:32.607Z,35.33
2019-02-28T03:34:10.216Z,36.60
2019-02-28T03:36:33.259Z,36.90
2019-02-28T03:39:03.105Z,40.27
2019-02-28T03:41:33.980Z,39.13
2019-02-28T03:44:03.159Z,39.00
2019-02-28T03:46:32.691Z,38.67
2019-02-28T03:49:01.919Z,38.83
2019-02-28T03:51:31.021Z,38.47
2019-02-28T03:54:00.570Z,40.33
2019-02-28T03:56:29.835Z,39.07
2019-02-28T03:58:58.942Z,40.23
2019-02-28T04:01:28.046Z,41.10
2019-02-28T04:03:57.566Z,40.80
2019-02-28T04:06:27.170Z,42.17
2019-02-28T04:08:56.838Z,43.47
2019-02-28T04:11:30.795Z,41.97
2019-02-28T04:13:57.314Z,46.87
2019-02-28T04:16:26.914Z,46.60
2019-02-28T04:18:56.128Z,43.30
2019-02-28T04:21:25.630Z,42.63
2019-02-28T04:23:55.547Z,43.50
2019-02-28T04:26:24.737Z,44.07
2019-02-28T04:28:54.913Z,44.63
2019-02-28T04:31:24.236Z,46.20
2019-02-28T04:33:53.869Z,46.47
2019-02-28T04:36:23.479Z,46.27
2019-02-28T04:38:53.079Z,45.57
2019-02-28T04:41:22.696Z,45.67
2019-02-28T04:43:52.322Z,46.23
2019-02-28T04:46:21.924Z,47.83
2019-02-28T04:48:51.125Z,46.53
2019-02-28T04:51:20.669Z,46.87
2019-02-28T04:53:52.525Z,47.03
2019-02-28T04:56:21.724Z,47.13
2019-02-28T04:58:51.260Z,47.67
2019-02-28T05:01:20.843Z,48.63
2019-02-28T05:03:50.078Z,47.43
2019-02-28T05:06:21.231Z,47.40
2019-02-28T05:08:50.893Z,48.27
2019-02-28T05:11:20.108Z,49.77
2019-02-28T05:13:49.656Z,49.87
2019-02-28T05:16:19.262Z,51.90
2019-02-28T05:18:48.911Z,49.80
2019-02-28T05:21:19.577Z,49.10
2019-02-28T05:23:49.379Z,50.60
2019-02-28T05:26:18.461Z,49.87
2019-02-28T05:28:47.993Z,48.87
2019-02-28T05:31:17.662Z,50.33
2019-02-28T05:33:47.326Z,50.63
2019-02-28T05:36:16.498Z,49.87
2019-02-28T05:38:46.066Z,51.10
2019-02-28T05:41:16.047Z,50.00
2019-02-28T05:43:45.685Z,51.50
2019-02-28T05:46:15.285Z,52.63
2019-02-28T05:48:44.979Z,52.20
2019-02-28T05:51:14.725Z,51.00
2019-02-28T05:53:44.891Z,53.23
2019-02-28T05:56:13.993Z,52.17
2019-02-28T05:58:44.082Z,50.43
2019-02-28T06:01:13.254Z,53.70
2019-02-28T06:03:42.380Z,54.40
2019-02-28T06:06:11.928Z,51.83
2019-02-28T06:08:41.599Z,51.43
2019-02-28T06:11:10.777Z,53.43
2019-02-28T06:13:40.303Z,52.80
2019-02-28T06:16:12.351Z,51.97
2019-02-28T06:18:41.294Z,52.97
2019-02-28T06:21:11.016Z,51.87
2019-02-28T06:23:41.002Z,52.60
2019-02-28T06:26:11.314Z,51.60
2019-02-28T06:28:40.962Z,52.30
2019-02-28T06:31:14.403Z,54.17
2019-02-28T06:33:43.039Z,52.33
2019-02-28T06:36:12.125Z,51.67
2019-02-28T06:38:41.662Z,50.43
2019-02-28T06:41:11.352Z,51.70
2019-02-28T06:43:40.960Z,50.63
2019-02-28T06:46:10.667Z,50.80
2019-02-28T06:48:40.324Z,52.77
2019-02-28T06:51:10.020Z,50.20
2019-02-28T06:53:41.235Z,49.00
2019-02-28T06:56:10.447Z,48.97
2019-02-28T06:58:39.983Z,48.03
2019-02-28T07:01:09.194Z,48.37
2019-02-28T07:03:38.798Z,49.00
2019-02-28T07:06:09.482Z,47.30
2019-02-28T07:08:39.181Z,49.87
2019-02-28T07:11:09.205Z,49.40
2019-02-28T07:13:40.151Z,49.23
2019-02-28T07:16:10.026Z,47.80
2019-02-28T07:18:39.677Z,49.23
2019-02-28T07:21:09.348Z,49.33
2019-02-28T07:23:39.300Z,48.37
2019-02-28T07:26:09.000Z,46.10
2019-02-28T07:28:38.323Z,48.90
2019-02-28T07:31:07.990Z,51.63
2019-02-28T07:33:37.295Z,50.47
2019-02-28T07:36:09.633Z,50.93
2019-02-28T07:38:37.642Z,51.50
2019-02-28T07:41:06.890Z,50.70
2019-02-28T07:43:36.426Z,51.60
2019-02-28T07:46:07.803Z,49.17
2019-02-28T07:48:37.405Z,50.73
2019-02-28T07:51:06.639Z,50.63
2019-02-28T07:53:35.887Z,52.80
2019-02-28T07:56:07.100Z,52.43
2019-02-28T07:58:36.350Z,52.50
2019-02-28T08:01:06.042Z,53.17
2019-02-28T08:03:35.256Z,55.00
2019-02-28T08:06:05.737Z,52.40
2019-02-28T08:08:35.254Z,52.67
2019-02-28T08:11:04.482Z,51.07
2019-02-28T08:13:34.650Z,50.73
2019-02-28T08:16:07.365Z,50.17
2019-02-28T08:18:36.968Z,50.20
2019-02-28T08:21:08.793Z,49.57
2019-02-28T08:23:37.677Z,48.47
2019-02-28T08:26:07.479Z,48.17
2019-02-28T08:28:37.202Z,50.40
2019-02-28T08:31:07.274Z,49.30
2019-02-28T08:33:36.445Z,47.10
2019-02-28T08:36:11.541Z,48.27
2019-02-28T08:38:37.292Z,48.90
2019-02-28T08:41:06.927Z,46.63
2019-02-28T08:43:36.598Z,48.60
2019-02-28T08:46:09.772Z,48.57
2019-02-28T08:48:37.752Z,46.90
2019-02-28T08:51:06.971Z,46.97
2019-02-28T08:53:36.559Z,46.30
2019-02-28T08:56:07.150Z,44.27
2019-02-28T08:58:37.656Z,45.63
2019-02-28T09:01:07.936Z,45.23
2019-02-28T09:03:37.546Z,44.80
2019-02-28T09:06:07.524Z,44.23
2019-02-28T09:08:37.153Z,44.43
2019-02-28T09:11:06.954Z,41.53
2019-02-28T09:13:36.627Z,41.73
2019-02-28T09:16:06.309Z,41.37
2019-02-28T09:18:35.911Z,42.13
2019-02-28T09:21:05.622Z,40.50
2019-02-28T09:23:37.523Z,40.53
2019-02-28T09:26:06.101Z,39.43
2019-02-28T09:28:35.197Z,39.80
2019-02-28T09:31:05.060Z,41.17
2019-02-28T09:33:35.675Z,38.13
2019-02-28T09:36:04.886Z,39.00
2019-02-28T09:38:34.346Z,38.57
2019-02-28T09:41:04.516Z,38.67
2019-02-28T09:43:34.623Z,38.87
2019-02-28T09:46:04.230Z,37.73
2019-02-28T09:48:37.129Z,36.73
2019-02-28T09:51:05.658Z,36.30
2019-02-28T09:53:34.825Z,36.27
2019-02-28T09:56:09.055Z,36.90
2019-02-28T09:58:35.411Z,36.47
2019-02-28T10:01:05.522Z,36.30
2019-02-28T10:03:35.143Z,35.60
2019-02-28T10:06:04.343Z,35.47
2019-02-28T10:08:36.895Z,37.13
2019-02-28T10:11:05.271Z,35.17
2019-02-28T10:13:34.507Z,35.70
2019-02-28T10:16:03.683Z,37.10
2019-02-28T10:18:35.546Z,36.43
2019-02-28T10:21:04.802Z,39.00
2019-02-28T10:23:34.129Z,39.30
2019-02-28T10:26:03.336Z,39.27
2019-02-28T10:28:32.953Z,39.47
2019-02-28T10:31:04.323Z,38.10
2019-02-28T10:33:33.915Z,38.30
2019-02-28T10:36:03.682Z,38.00
2019-02-28T10:38:33.939Z,38.47
2019-02-28T10:41:03.710Z,38.50
2019-02-28T10:43:33.332Z,38.13
2019-02-28T10:46:03.364Z,38.43
2019-02-28T10:48:35.217Z,37.87
2019-02-28T10:51:12.886Z,37.47
2019-02-28T10:53:36.370Z,38.80
2019-02-28T10:56:06.867Z,36.33
2019-02-28T10:58:36.070Z,38.13
2019-02-28T11:01:08.939Z,36.33
2019-02-28T11:03:39.520Z,35.87
2019-02-28T11:06:09.433Z,35.50
2019-02-28T11:08:39.362Z,35.77
2019-02-28T11:11:10.530Z,35.27
2019-02-28T11:13:39.961Z,35.60
2019-02-28T11:16:09.562Z,35.47
2019-02-28T11:18:41.963Z,33.93
2019-02-28T11:21:10.461Z,34.27
2019-02-28T11:23:39.769Z,33.73
2019-02-28T11:26:10.370Z,33.63
2019-02-28T11:28:40.006Z,32.27
2019-02-28T11:31:11.085Z,33.70
2019-02-28T11:33:40.451Z,34.33
2019-02-28T11:36:10.276Z,34.93
2019-02-28T11:38:39.534Z,33.20
2019-02-28T11:41:12.479Z,32.37
2019-02-28T11:43:42.245Z,32.07
2019-02-28T11:46:12.021Z,31.37
2019-02-28T11:48:41.754Z,30.90
2019-02-28T11:51:10.955Z,31.33
2019-02-28T11:53:40.597Z,32.10
2019-02-28T11:56:09.907Z,30.80
2019-02-28T11:58:39.441Z,31.10
2019-02-28T12:01:10.492Z,29.93
2019-02-28T12:03:39.525Z,29.27
2019-02-28T12:06:09.354Z,28.53
2019-02-28T12:08:41.592Z,29.47
2019-02-28T12:11:09.953Z,29.70
2019-02-28T12:13:39.529Z,28.50
2019-02-28T12:16:08.780Z,27.43
2019-02-28T12:18:40.004Z,27.20
2019-02-28T12:21:09.293Z,27.40
2019-02-28T12:23:38.900Z,26.57
2019-02-28T12:26:08.082Z,26.70
2019-02-28T12:28:38.428Z,25.67
2019-02-28T12:31:08.382Z,24.17
2019-02-28T12:33:37.925Z,24.67
2019-02-28T12:36:07.194Z,25.30
2019-02-28T12:38:36.746Z,25.00
2019-02-28T12:41:05.917Z,23.13
2019-02-28T12:43:35.687Z,22.27
2019-02-28T12:46:06.418Z,22.43
2019-02-28T12:48:35.835Z,23.10
2019-02-28T12:51:05.457Z,22.73
2019-02-28T12:53:35.778Z,23.30
2019-02-28T12:56:05.541Z,23.50
2019-02-28T12:58:38.719Z,24.13
2019-02-28T13:01:05.703Z,22.63
2019-02-28T13:03:34.833Z,21.60
2019-02-28T13:06:04.567Z,21.00
2019-02-28T13:08:34.291Z,21.40
2019-02-28T13:11:04.713Z,21.23
2019-02-28T13:13:34.402Z,21.97
2019-02-28T13:16:03.711Z,20.90
2019-02-28T13:18:33.243Z,21.43
2019-02-28T13:21:02.454Z,21.77
2019-02-28T13:23:33.341Z,21.17
2019-02-28T13:26:02.954Z,20.60
2019-02-28T13:28:32.527Z,20.97
2019-02-28T13:31:02.166Z,20.23
2019-02-28T13:33:31.882Z,23.87
2019-02-28T13:36:01.532Z,20.93
2019-02-28T13:38:30.766Z,22.33
2019-02-28T13:41:00.266Z,22.50
2019-02-28T13:43:31.975Z,21.67
2019-02-28T13:46:00.890Z,20.53
2019-02-28T13:48:33.743Z,20.83
2019-02-28T13:51:02.552Z,21.33
2019-02-28T13:53:32.930Z,21.30
2019-02-28T13:56:04.836Z,20.67
2019-02-28T13:58:33.457Z,19.17
2019-02-28T14:01:03.824Z,21.27
2019-02-28T14:03:33.479Z,20.70
2019-02-28T14:06:02.727Z,20.03
2019-02-28T14:08:32.314Z,19.77
2019-02-28T14:11:01.648Z,18.57
2019-02-28T14:13:34.736Z,18.70
2019-02-28T14:16:03.779Z,17.93
2019-02-28T14:18:33.060Z,18.43
2019-02-28T14:21:03.197Z,18.70
2019-02-28T14:23:33.839Z,18.53
2019-02-28T14:26:03.588Z,17.87
2019-02-28T14:28:35.623Z,18.63
2019-02-28T14:31:05.371Z,17.03
2019-02-28T14:33:34.555Z,17.90
2019-02-28T14:36:04.086Z,18.13
2019-02-28T14:38:33.758Z,17.70
2019-02-28T14:41:03.525Z,16.90
2019-02-28T14:43:32.729Z,17.03
2019-02-28T14:46:02.327Z,17.83
2019-02-28T14:48:31.955Z,17.33
2019-02-28T14:51:01.158Z,17.40
2019-02-28T14:53:30.285Z,16.97
2019-02-28T14:55:59.954Z,17.13
2019-02-28T14:58:29.566Z,16.40
2019-02-28T15:00:58.743Z,17.23
2019-02-28T15:03:27.954Z,18.07
2019-02-28T15:05:57.180Z,17.30
2019-02-28T15:08:27.178Z,17.33
2019-02-28T15:10:57.035Z,17.13
2019-02-28T15:13:26.386Z,16.77
2019-02-28T15:15:55.496Z,17.23
2019-02-28T15:18:25.135Z,16.50
2019-02-28T15:20:54.776Z,16.40
2019-02-28T15:23:23.969Z,16.80
2019-02-28T15:25:54.215Z,16.43
2019-02-28T15:28:24.240Z,16.10
2019-02-28T15:30:53.337Z,16.37
2019-02-28T15:33:22.470Z,17.07
2019-02-28T15:35:51.989Z,16.43
2019-02-28T15:38:21.590Z,16.47
2019-02-28T15:40:51.213Z,16.80
2019-02-28T15:43:20.933Z,15.43
2019-02-28T15:45:50.543Z,16.33
2019-02-28T15:48:20.196Z,16.37
2019-02-28T15:50:51.692Z,17.03
2019-02-28T15:53:21.195Z,15.80
2019-02-28T15:55:50.954Z,15.13
2019-02-28T15:58:20.186Z,16.13
2019-02-28T16:01:14.823Z,16.03
2019-02-28T16:04:26.311Z,15.80
2019-02-28T16:06:57.931Z,15.37
2019-02-28T16:09:26.821Z,19.87
2019-02-28T16:11:55.913Z,16.63
2019-02-28T16:14:25.710Z,16.30
2019-02-28T16:16:56.799Z,16.37
2019-02-28T16:19:27.941Z,16.80
2019-02-28T16:21:58.982Z,15.20
2019-02-28T16:24:28.178Z,15.23
2019-02-28T16:26:58.025Z,15.33
2019-02-28T16:29:28.238Z,16.43
2019-02-28T16:31:57.775Z,16.53
2019-02-28T16:34:28.025Z,15.37
2019-02-28T16:37:00.901Z,16.47
2019-02-28T16:39:28.454Z,16.13
2019-02-28T16:41:57.574Z,15.77
2019-02-28T16:44:27.664Z,15.90
2019-02-28T16:46:58.283Z,16.63
2019-02-28T16:49:27.549Z,15.10
2019-02-28T16:51:56.737Z,15.63
2019-02-28T16:54:27.824Z,14.33
2019-02-28T16:56:56.734Z,16.50
2019-02-28T16:59:28.430Z,14.80
2019-02-28T17:01:56.631Z,17.00
2019-02-28T17:04:25.755Z,15.47
2019-02-28T17:06:55.598Z,16.83
2019-02-28T17:09:43.841Z,16.60
2019-02-28T17:12:31.032Z,15.17
2019-02-28T17:15:00.297Z,16.07
2019-02-28T17:17:33.710Z,15.47
2019-02-28T17:20:06.166Z,15.67
2019-02-28T17:22:34.172Z,16.17
2019-02-28T17:25:04.235Z,15.57
2019-02-28T17:27:43.219Z,15.20
2019-02-28T17:30:22.950Z,16.00
2019-02-28T17:32:52.170Z,16.20
2019-02-28T17:35:21.571Z,15.93
2019-02-28T17:37:50.784Z,16.47
2019-02-28T17:40:23.150Z,17.07
2019-02-28T17:42:51.237Z,15.33
2019-02-28T17:45:25.087Z,18.97
2019-02-28T17:48:29.016Z,20.40
2019-02-28T17:51:00.005Z,19.30
2019-02-28T17:54:07.038Z,21.20
2019-02-28T17:56:54.135Z,16.83
2019-02-28T17:59:42.514Z,16.17
2019-02-28T18:02:30.742Z,17.00
2019-02-28T18:05:33.733Z,17.07
2019-02-28T18:08:15.395Z,16.80
2019-02-28T18:10:59.241Z,16.43
2019-02-28T18:13:40.559Z,17.03
2019-02-28T18:16:31.874Z,16.07
2019-02-28T18:19:18.348Z,16.77
2019-02-28T18:22:01.144Z,16.37
2019-02-28T18:24:55.827Z,15.80
2019-02-28T18:27:47.957Z,15.83
2019-02-28T18:31:06.315Z,14.77
2019-02-28T18:33:36.569Z,14.60
2019-02-28T18:36:08.307Z,18.67
2019-02-28T18:38:39.289Z,22.43
2019-02-28T18:41:09.245Z,23.83
2019-02-28T18:43:40.454Z,18.87
2019-02-28T18:46:09.984Z,15.93
2019-02-28T18:48:39.607Z,16.03
2019-02-28T18:51:09.423Z,15.70
2019-02-28T18:53:39.449Z,16.07
2019-02-28T18:56:10.066Z,15.70
2019-02-28T18:58:39.745Z,16.30
2019-02-28T19:01:36.977Z,15.33
2019-02-28T19:04:07.999Z,14.97
2019-02-28T19:06:37.509Z,14.30
2019-02-28T19:09:18.250Z,14.87
2019-02-28T19:11:48.030Z,14.50
2019-02-28T19:14:17.662Z,14.83
2019-02-28T19:16:46.895Z,15.67
2019-02-28T19:19:16.016Z,13.77
2019-02-28T19:21:45.537Z,14.13
2019-02-28T19:24:14.762Z,14.03
2019-02-28T19:26:43.947Z,13.77
2019-02-28T19:29:13.542Z,14.17
2019-02-28T19:31:42.777Z,14.20
2019-02-28T19:34:12.474Z,13.77
2019-02-28T19:36:42.055Z,14.77
2019-02-28T19:39:11.879Z,14.57
2019-02-28T19:41:41.219Z,14.27
2019-02-28T19:44:10.534Z,14.57
2019-02-28T19:46:39.678Z,14.97
2019-02-28T19:49:09.007Z,14.37
2019-02-28T19:51:40.269Z,14.00
2019-02-28T19:54:10.031Z,14.37
2019-02-28T19:56:39.331Z,16.10
2019-02-28T19:59:09.158Z,16.10
2019-02-28T20:01:38.290Z,16.47
2019-02-28T20:04:07.996Z,15.13
2019-02-28T20:06:37.204Z,14.63
2019-02-28T20:09:07.443Z,15.53
2019-02-28T20:11:38.146Z,17.40
2019-02-28T20:14:07.883Z,18.40
2019-02-28T20:16:37.557Z,16.33
2019-02-28T20:19:06.863Z,14.90
2019-02-28T20:21:36.859Z,15.87
2019-02-28T20:24:06.463Z,15.07
2019-02-28T20:26:36.244Z,15.30
2019-02-28T20:29:06.126Z,16.13
2019-02-28T20:31:35.455Z,15.90
2019-02-28T20:34:04.566Z,16.37
2019-02-28T20:36:34.178Z,15.40
2019-02-28T20:39:05.483Z,16.43
2019-02-28T20:41:36.394Z,16.03
2019-02-28T20:44:06.080Z,16.20
2019-02-28T20:46:35.783Z,16.83
2019-02-28T20:49:05.555Z,16.77
2019-02-28T20:51:34.782Z,15.57
2019-02-28T20:54:04.273Z,16.47
2019-02-28T20:56:33.812Z,16.20
2019-02-28T20:59:03.510Z,16.93
2019-02-28T21:01:33.191Z,16.17
2019-02-28T21:04:02.490Z,16.50
2019-02-28T21:06:31.776Z,17.87
2019-02-28T21:09:00.958Z,22.47
2019-02-28T21:11:31.962Z,16.67
2019-02-28T21:14:01.506Z,16.37
2019-02-28T21:16:30.758Z,16.30
2019-02-28T21:19:00.323Z,17.60
2019-02-28T21:21:29.634Z,17.73
2019-02-28T21:23:59.241Z,17.90
2019-02-28T21:26:28.502Z,17.23
2019-02-28T21:28:57.619Z,16.90
2019-02-28T21:31:26.765Z,18.00
2019-02-28T21:33:56.298Z,16.30
2019-02-28T21:36:26.146Z,18.57
2019-02-28T21:38:55.416Z,18.83
2019-02-28T21:41:24.517Z,18.70
2019-02-28T21:43:54.637Z,18.83
2019-02-28T21:46:23.877Z,18.90
2019-02-28T21:48:53.541Z,18.57
2019-02-28T21:51:22.877Z,17.63
2019-02-28T21:53:51.982Z,16.83
2019-02-28T21:56:21.522Z,18.23
2019-02-28T21:58:51.122Z,18.63
2019-02-28T22:01:20.334Z,17.63
2019-02-28T22:03:49.873Z,18.23
2019-02-28T22:06:19.061Z,18.17
2019-02-28T22:08:48.237Z,18.20
2019-02-28T22:11:18.396Z,17.53
2019-02-28T22:13:47.967Z,17.90
2019-02-28T22:16:17.707Z,18.83
2019-02-28T22:18:47.342Z,19.43
2019-02-28T22:21:16.582Z,19.30
2019-02-28T22:23:45.688Z,18.97
2019-02-28T22:26:15.355Z,19.47
2019-02-28T22:28:45.013Z,19.30
2019-02-28T22:31:30.102Z,19.00
2019-02-28T22:34:11.181Z,19.77
2019-02-28T22:36:42.777Z,18.70
2019-02-28T22:39:13.009Z,20.47
2019-02-28T22:41:42.129Z,19.53
2019-02-28T22:44:11.286Z,20.40
2019-02-28T22:46:40.434Z,20.60
2019-02-28T22:49:10.725Z,20.27
2019-02-28T22:51:40.254Z,20.93
2019-02-28T22:54:09.483Z,19.80
2019-02-28T22:56:39.130Z,19.83
2019-02-28T22:59:08.325Z,20.30
2019-02-28T23:01:38.437Z,20.70
2019-02-28T23:04:08.152Z,20.37
2019-02-28T23:06:37.903Z,19.53
2019-02-28T23:09:07.588Z,19.10
2019-02-28T23:11:37.139Z,20.40
2019-02-28T23:14:06.688Z,19.63
2019-02-28T23:16:35.918Z,20.30
2019-02-28T23:19:06.490Z,20.60
2019-02-28T23:21:36.138Z,20.57
2019-02-28T23:24:05.342Z,19.20
2019-02-28T23:26:53.722Z,19.57
2019-02-28T23:29:23.878Z,19.77
2019-02-28T23:32:26.079Z,19.23
2019-02-28T23:34:56.464Z,18.53
2019-02-28T23:37:25.668Z,18.20
2019-02-28T23:39:54.979Z,18.03
2019-02-28T23:42:24.692Z,19.53
2019-02-28T23:44:54.043Z,17.37
2019-02-28T23:47:23.678Z,18.20
2019-02-28T23:49:54.175Z,18.40
2019-02-28T23:52:23.306Z,17.70
2019-02-28T23:54:52.900Z,17.73
2019-02-28T23:57:22.152Z,17.87
2019-02-28T23:59:51.680Z,17.80
